Time;durP1;ratioP1;P1;durP2;ratioP2;P2;SDS_P1;SDS_P2;PMS_P1;PMS_P2;Temp;Humidity;BMP_temperature;BMP_pressure;BME280_temperature;BME280_humidity;BME280_pressure;Samples;Min_cycle;Max_cycle;Signal;HPM_P1;HPM_P2
2022/08/31 00:04:11;;;;;;;0.88;0.50;;;20.20;60.50;;;;;;5028930;28;20404;-73
2022/08/31 00:06:38;;;;;;;1.23;0.57;;;20.20;60.60;;;;;;5028876;28;20381;-72
2022/08/31 00:09:06;;;;;;;0.50;0.50;;;20.20;60.70;;;;;;5028783;28;20052;-72
2022/08/31 00:11:34;;;;;;;0.82;0.73;;;20.10;60.60;;;;;;5028772;28;20036;-73
2022/08/31 00:14:04;;;;;;;0.40;0.40;;;20.10;60.60;;;;;;5028010;28;20485;-73
2022/08/31 00:16:34;;;;;;;2.85;0.40;;;20.10;60.70;;;;;;5029062;28;20469;-72
2022/08/31 00:19:00;;;;;;;0.55;0.40;;;20.10;60.90;;;;;;5029434;28;20022;-72
2022/08/31 00:21:26;;;;;;;0.50;0.40;;;20.00;60.80;;;;;;5027993;28;20400;-72
2022/08/31 00:23:53;;;;;;;0.43;0.43;;;20.00;60.90;;;;;;5008591;28;20022;-72
2022/08/31 00:26:20;;;;;;;4.15;1.15;;;20.00;60.90;;;;;;5028862;28;20033;-72
2022/08/31 00:28:46;;;;;;;1.20;0.60;;;19.90;61.00;;;;;;5028824;28;20033;-73
2022/08/31 00:31:12;;;;;;;1.77;0.90;;;19.90;61.20;;;;;;5039791;28;20033;-72
2022/08/31 00:33:38;;;;;;;0.52;0.52;;;19.90;61.20;;;;;;5031982;28;20037;-73
2022/08/31 00:36:10;;;;;;;0.95;0.70;;;19.90;61.20;;;;;;5030818;28;20453;-73
2022/08/31 00:38:37;;;;;;;0.50;0.50;;;19.90;61.20;;;;;;5039728;28;20144;-71
2022/08/31 00:41:03;;;;;;;0.73;0.70;;;19.80;61.20;;;;;;5031962;28;20025;-72
2022/08/31 00:43:42;;;;;;;0.70;0.70;;;19.80;61.30;;;;;;5005976;28;20556;-72
2022/08/31 00:46:10;;;;;;;3.53;0.77;;;19.80;61.30;;;;;;5032460;28;20037;-72
2022/08/31 00:48:43;;;;;;;0.40;0.40;;;19.70;61.40;;;;;;5031288;28;20087;-71
2022/08/31 00:51:10;;;;;;;0.95;0.73;;;19.70;61.60;;;;;;5014214;28;20033;-71
2022/08/31 00:53:37;;;;;;;1.30;0.60;;;19.60;61.70;;;;;;5030099;28;20034;-71
2022/08/31 00:56:03;;;;;;;0.30;0.30;;;19.60;61.60;;;;;;5013898;28;20037;-72
2022/08/31 00:58:29;;;;;;;0.82;0.60;;;19.60;61.70;;;;;;5032174;28;20029;-71
2022/08/31 01:00:57;;;;;;;1.75;0.60;;;19.60;61.80;;;;;;5032162;28;20484;-72
2022/08/31 01:03:24;;;;;;;0.50;0.50;;;19.50;61.80;;;;;;5014667;28;20447;-71
2022/08/31 01:05:50;;;;;;;0.73;0.73;;;19.50;61.90;;;;;;5031517;28;20105;-72
2022/08/31 01:08:16;;;;;;;1.45;1.17;;;19.50;62.00;;;;;;5031714;28;20029;-72
2022/08/31 01:10:43;;;;;;;0.50;0.50;;;19.40;62.10;;;;;;5039031;28;20133;-71
2022/08/31 01:13:13;;;;;;;0.70;0.70;;;19.40;62.10;;;;;;5032049;28;20508;-71
2022/08/31 01:15:44;;;;;;;1.67;0.90;;;19.40;62.20;;;;;;5013803;28;20034;-71
2022/08/31 01:18:11;;;;;;;0.50;0.50;;;19.30;62.20;;;;;;5032113;28;20029;-71
2022/08/31 01:20:56;;;;;;;0.63;0.60;;;19.30;62.30;;;;;;5031630;28;20087;-72
2022/08/31 01:23:37;;;;;;;1.00;0.50;;;19.40;62.30;;;;;;5031466;28;20041;-71
2022/08/31 01:26:04;;;;;;;1.33;1.23;;;19.30;62.30;;;;;;5029402;28;20025;-72
2022/08/31 01:28:30;;;;;;;0.55;0.55;;;19.20;62.90;;;;;;5039560;28;20024;-72
2022/08/31 01:31:13;;;;;;;0.93;0.52;;;19.20;62.40;;;;;;5043143;28;20059;-71
2022/08/31 01:33:38;;;;;;;;;;;19.20;62.50;;;;;;5019897;28;20017;-72
2022/08/31 01:36:06;;;;;;;0.63;0.60;;;19.10;62.60;;;;;;5029472;28;19928;-72
2022/08/31 01:38:34;;;;;;;0.50;0.50;;;19.10;62.70;;;;;;5013104;28;20024;-72
2022/08/31 01:41:02;;;;;;;0.77;0.73;;;19.10;62.60;;;;;;5008816;28;20032;-67
2022/08/31 01:43:32;;;;;;;0.93;0.82;;;19.10;63.20;;;;;;5028352;28;20473;-66
2022/08/31 01:45:59;;;;;;;0.60;0.60;;;19.00;62.50;;;;;;5030483;28;20080;-66
2022/08/31 01:48:26;;;;;;;1.83;1.20;;;19.00;62.50;;;;;;5029117;28;20048;-66
2022/08/31 01:50:52;;;;;;;1.48;0.60;;;19.00;62.50;;;;;;5030975;28;20112;-72
2022/08/31 01:53:18;;;;;;;0.50;0.50;;;19.00;62.50;;;;;;5030722;28;20120;-72
2022/08/31 01:55:45;;;;;;;0.55;0.55;;;19.00;62.50;;;;;;5030862;28;20025;-71
2022/08/31 01:58:11;;;;;;;1.08;0.65;;;19.00;62.50;;;;;;5031399;28;20496;-71
2022/08/31 02:00:37;;;;;;;0.60;0.40;;;18.90;62.50;;;;;;4996856;28;20021;-72
2022/08/31 02:03:06;;;;;;;0.40;0.40;;;18.90;62.50;;;;;;5031060;28;20095;-66
2022/08/31 02:05:34;;;;;;;0.60;0.60;;;18.90;62.60;;;;;;5030986;28;20389;-66
2022/08/31 02:08:00;;;;;;;0.70;0.70;;;18.80;62.70;;;;;;5013169;28;20032;-66
2022/08/31 02:10:26;;;;;;;0.43;0.43;;;18.80;62.70;;;;;;5030283;28;20033;-67
2022/08/31 02:12:52;;;;;;;1.65;0.98;;;18.80;62.70;;;;;;5031327;28;20071;-66
2022/08/31 02:15:17;;;;;;;0.57;0.57;;;18.70;62.70;;;;;;5032238;28;20037;-66
2022/08/31 02:17:43;;;;;;;0.68;0.68;;;18.70;62.60;;;;;;5042177;28;20033;-66
2022/08/31 02:20:10;;;;;;;0.80;0.65;;;18.70;62.70;;;;;;5031226;28;20180;-67
2022/08/31 02:22:36;;;;;;;0.65;0.65;;;18.70;62.70;;;;;;5011763;28;20057;-67
2022/08/31 02:25:02;;;;;;;0.88;0.60;;;18.70;62.70;;;;;;5012676;28;20620;-66
2022/08/31 02:27:27;;;;;;;0.60;0.60;;;18.60;62.70;;;;;;5012403;28;20055;-67
2022/08/31 02:29:53;;;;;;;0.60;0.60;;;18.60;62.70;;;;;;5013156;28;20083;-66
2022/08/31 02:32:20;;;;;;;12.57;0.65;;;18.60;62.70;;;;;;5030310;28;20040;-66
2022/08/31 02:34:47;;;;;;;0.50;0.50;;;18.60;62.70;;;;;;5030700;28;20032;-71
2022/08/31 02:37:12;;;;;;;0.40;0.32;;;18.50;62.60;;;;;;5028501;28;20036;-72
2022/08/31 02:39:38;;;;;;;0.57;0.40;;;18.50;62.60;;;;;;5012615;28;20017;-71
2022/08/31 02:42:04;;;;;;;0.75;0.73;;;18.50;62.50;;;;;;5012215;28;20123;-66
2022/08/31 02:44:30;;;;;;;0.60;0.60;;;18.40;62.60;;;;;;5030226;28;20021;-66
2022/08/31 02:46:55;;;;;;;0.50;0.50;;;18.40;62.60;;;;;;5012657;28;20038;-67
2022/08/31 02:49:21;;;;;;;3.10;0.70;;;18.40;62.70;;;;;;5012731;28;20029;-66
2022/08/31 02:51:47;;;;;;;0.77;0.77;;;18.30;62.70;;;;;;5033014;28;20103;-67
2022/08/31 02:54:13;;;;;;;0.77;0.60;;;18.30;62.80;;;;;;5029205;28;20083;-66
2022/08/31 02:56:38;;;;;;;1.48;0.85;;;18.30;62.80;;;;;;5029037;28;20021;-66
2022/08/31 02:59:05;;;;;;;0.60;0.60;;;18.30;62.70;;;;;;5032904;28;21572;-66
2022/08/31 03:01:31;;;;;;;0.55;0.50;;;18.20;62.60;;;;;;5017128;28;20029;-66
2022/08/31 03:03:57;;;;;;;0.40;0.40;;;18.20;62.70;;;;;;5028668;28;20041;-66
2022/08/31 03:06:22;;;;;;;0.40;0.32;;;18.20;62.60;;;;;;5018537;28;20052;-66
2022/08/31 03:08:48;;;;;;;0.73;0.50;;;18.20;62.70;;;;;;5029602;28;20484;-66
2022/08/31 03:11:15;;;;;;;0.40;0.40;;;18.10;62.60;;;;;;4976740;28;20088;-66
2022/08/31 03:13:42;;;;;;;0.50;0.45;;;18.10;62.70;;;;;;5029893;28;20420;-66
2022/08/31 03:16:08;;;;;;;0.47;0.47;;;18.00;62.70;;;;;;5029705;28;20021;-66
2022/08/31 03:18:34;;;;;;;0.63;0.63;;;18.00;62.70;;;;;;5011686;28;20481;-66
2022/08/31 03:21:01;;;;;;;0.88;0.68;;;18.00;62.70;;;;;;5011889;28;20084;-66
2022/08/31 03:23:26;;;;;;;0.50;0.50;;;17.90;62.60;;;;;;5011573;28;20067;-66
2022/08/31 03:25:52;;;;;;;1.10;0.50;;;17.90;62.60;;;;;;5011164;28;20040;-72
2022/08/31 03:28:19;;;;;;;0.38;0.38;;;17.90;62.60;;;;;;5026497;28;20041;-72
2022/08/31 03:30:45;;;;;;;0.60;0.60;;;17.90;62.60;;;;;;5029262;28;20063;-68
2022/08/31 03:33:11;;;;;;;0.73;0.73;;;17.80;62.50;;;;;;5029767;28;20061;-66
2022/08/31 03:35:42;;;;;;;0.75;0.70;;;17.80;62.50;;;;;;5012598;28;20055;-67
2022/08/31 03:38:08;;;;;;;0.63;0.50;;;17.80;62.50;;;;;;5011981;28;20060;-66
2022/08/31 03:40:33;;;;;;;0.50;0.50;;;17.70;62.50;;;;;;5028825;28;20061;-66
2022/08/31 03:42:59;;;;;;;0.50;0.50;;;17.70;62.50;;;;;;4995179;28;20037;-71
2022/08/31 03:45:26;;;;;;;0.47;0.47;;;17.70;62.50;;;;;;5028562;28;20036;-72
2022/08/31 03:47:52;;;;;;;0.45;0.43;;;17.70;62.50;;;;;;5029099;28;20032;-72
2022/08/31 03:50:18;;;;;;;0.82;0.50;;;17.60;62.30;;;;;;5028669;28;20044;-71
2022/08/31 03:52:44;;;;;;;0.50;0.35;;;17.60;62.30;;;;;;5029256;28;20678;-72
2022/08/31 03:55:10;;;;;;;0.70;0.70;;;17.60;62.30;;;;;;5028745;28;20069;-71
2022/08/31 03:57:36;;;;;;;0.70;0.65;;;17.60;62.30;;;;;;5011282;28;20025;-72
2022/08/31 04:00:05;;;;;;;0.50;0.50;;;17.60;62.30;;;;;;5019804;28;20171;-71
2022/08/31 04:02:30;;;;;;;0.50;0.50;;;17.50;62.30;;;;;;5031001;28;20021;-71
2022/08/31 04:04:56;;;;;;;0.40;0.40;;;17.50;62.30;;;;;;5016931;28;20044;-72
2022/08/31 04:07:22;;;;;;;0.52;0.40;;;17.50;62.20;;;;;;5031694;28;20473;-67
2022/08/31 04:09:49;;;;;;;0.30;0.30;;;17.50;62.20;;;;;;5033356;28;20026;-67
2022/08/31 04:12:17;;;;;;;0.55;0.50;;;17.40;62.20;;;;;;5031585;28;20024;-67
2022/08/31 04:14:43;;;;;;;0.30;0.30;;;17.40;62.20;;;;;;5015325;28;20127;-67
2022/08/31 04:17:10;;;;;;;0.93;0.40;;;17.40;62.20;;;;;;5032270;28;20053;-67
2022/08/31 04:19:36;;;;;;;2.05;1.00;;;17.30;62.10;;;;;;5033274;28;20045;-67
2022/08/31 04:22:02;;;;;;;0.50;0.50;;;17.30;62.00;;;;;;5025991;28;20502;-67
2022/08/31 04:24:28;;;;;;;1.00;0.65;;;17.30;61.80;;;;;;5013114;28;20040;-67
2022/08/31 04:26:54;;;;;;;0.70;0.70;;;17.30;61.70;;;;;;5014862;28;20437;-67
2022/08/31 04:29:22;;;;;;;0.93;0.75;;;17.30;61.70;;;;;;4993849;28;20076;-68
2022/08/31 04:31:48;;;;;;;0.43;0.43;;;17.20;61.60;;;;;;4993778;28;20117;-67
2022/08/31 04:34:13;;;;;;;0.40;0.40;;;17.30;61.60;;;;;;4995511;28;20121;-73
2022/08/31 04:36:39;;;;;;;0.38;0.30;;;17.20;61.50;;;;;;4993836;28;20120;-72
2022/08/31 04:39:06;;;;;;;0.57;0.57;;;17.20;61.40;;;;;;5012581;28;20042;-72
2022/08/31 04:41:34;;;;;;;0.57;0.57;;;17.20;61.40;;;;;;5010972;28;20037;-67
2022/08/31 04:44:02;;;;;;;0.55;0.40;;;17.20;61.30;;;;;;4978749;28;20038;-67
2022/08/31 04:46:29;;;;;;;0.60;0.40;;;17.10;61.20;;;;;;5011017;28;20504;-72
2022/08/31 04:48:56;;;;;;;0.47;0.45;;;17.10;61.20;;;;;;5003863;28;20040;-67
2022/08/31 04:51:25;;;;;;;0.55;0.55;;;17.10;61.00;;;;;;5013213;28;20026;-73
2022/08/31 04:53:51;;;;;;;0.95;0.60;;;17.10;61.00;;;;;;5023982;28;20022;-72
2022/08/31 04:56:21;;;;;;;0.32;0.32;;;17.00;60.90;;;;;;5011790;28;20125;-67
2022/08/31 04:58:50;;;;;;;0.30;0.30;;;17.00;60.80;;;;;;5012412;28;20064;-67
2022/08/31 05:01:20;;;;;;;0.35;0.35;;;17.00;60.70;;;;;;5025517;28;20071;-67
2022/08/31 05:03:51;;;;;;;0.30;0.30;;;17.00;60.60;;;;;;5012419;28;20626;-74
2022/08/31 05:06:20;;;;;;;0.30;0.30;;;16.90;60.50;;;;;;5012394;28;20022;-67
2022/08/31 05:08:46;;;;;;;0.50;0.50;;;16.90;60.40;;;;;;5014945;28;20041;-73
2022/08/31 05:11:16;;;;;;;1.40;0.43;;;16.90;60.30;;;;;;5010967;28;20389;-72
2022/08/31 05:13:42;;;;;;;0.90;0.40;;;16.90;60.10;;;;;;4994047;28;20429;-73
2022/08/31 05:16:09;;;;;;;0.30;0.30;;;16.90;60.00;;;;;;4992424;28;20093;-67
2022/08/31 05:18:40;;;;;;;0.43;0.30;;;16.90;59.80;;;;;;5007671;28;20411;-67
2022/08/31 05:21:27;;;;;;;0.30;0.30;;;17.00;59.70;;;;;;5013131;28;20042;-67
2022/08/31 05:23:57;;;;;;;0.30;0.30;;;17.00;59.50;;;;;;5037389;28;20052;-73
2022/08/31 05:26:26;;;;;;;0.25;0.25;;;17.00;59.40;;;;;;5031426;28;20496;-73
2022/08/31 05:28:52;;;;;;;2.22;0.20;;;16.90;59.30;;;;;;5031619;28;20120;-67
2022/08/31 05:31:18;;;;;;;5.18;0.40;;;17.00;59.30;;;;;;5013754;28;20111;-67
2022/08/31 05:33:44;;;;;;;0.55;0.50;;;17.00;59.10;;;;;;5013840;28;20034;-67
2022/08/31 05:36:11;;;;;;;0.20;0.20;;;16.90;59.00;;;;;;4994714;28;20397;-67
2022/08/31 05:38:37;;;;;;;1.30;0.40;;;16.90;59.00;;;;;;5031273;28;20117;-67
2022/08/31 05:41:04;;;;;;;0.43;0.43;;;17.00;58.80;;;;;;5013277;28;20080;-67
2022/08/31 05:43:31;;;;;;;0.30;0.30;;;17.00;58.60;;;;;;5038000;28;20029;-67
2022/08/31 05:45:57;;;;;;;0.20;0.20;;;17.10;58.50;;;;;;4997205;28;20485;-73
2022/08/31 05:48:23;;;;;;;0.65;0.35;;;17.10;58.40;;;;;;5013704;28;20055;-67
2022/08/31 05:50:49;;;;;;;0.35;0.35;;;17.10;58.30;;;;;;4997142;28;20033;-73
2022/08/31 05:53:15;;;;;;;0.43;0.30;;;17.10;58.00;;;;;;5031087;28;20025;-73
2022/08/31 05:55:41;;;;;;;0.43;0.43;;;17.10;57.90;;;;;;5029091;28;20070;-68
2022/08/31 05:58:07;;;;;;;0.20;0.20;;;17.10;57.80;;;;;;5016207;28;20385;-67
2022/08/31 06:00:33;;;;;;;0.30;0.30;;;17.10;57.80;;;;;;4997044;28;20498;-72
2022/08/31 06:02:59;;;;;;;0.20;0.20;;;17.10;57.70;;;;;;5013610;28;20025;-72
2022/08/31 06:05:24;;;;;;;0.45;0.30;;;17.20;57.60;;;;;;5033983;28;20507;-67
2022/08/31 06:07:51;;;;;;;0.30;0.30;;;17.20;57.60;;;;;;5012914;28;20040;-72
2022/08/31 06:10:17;;;;;;;0.47;0.47;;;17.30;57.50;;;;;;5030818;28;20025;-72
2022/08/31 06:12:46;;;;;;;0.77;0.52;;;17.30;57.30;;;;;;5030988;28;20039;-67
2022/08/31 06:15:12;;;;;;;0.38;0.25;;;17.40;57.30;;;;;;5030015;28;20392;-67
2022/08/31 06:17:38;;;;;;;0.52;0.30;;;17.40;57.20;;;;;;5012838;28;20516;-67
2022/08/31 06:20:05;;;;;;;0.40;0.40;;;17.40;57.20;;;;;;5041420;28;20021;-67
2022/08/31 06:22:34;;;;;;;0.88;0.47;;;17.40;57.10;;;;;;5008933;28;20057;-67
2022/08/31 06:24:59;;;;;;;0.75;0.30;;;17.50;57.20;;;;;;5021861;28;20025;-67
2022/08/31 06:27:26;;;;;;;0.60;0.60;;;17.40;57.80;;;;;;5032314;28;20487;-71
2022/08/31 06:29:52;;;;;;;4.85;0.45;;;17.50;57.30;;;;;;4994636;28;20048;-71
2022/08/31 06:32:18;;;;;;;0.22;0.22;;;17.40;57.30;;;;;;5030250;28;20104;-71
2022/08/31 06:34:44;;;;;;;0.28;0.28;;;17.40;57.30;;;;;;5026686;28;20030;-71
2022/08/31 06:37:11;;;;;;;0.20;0.20;;;17.40;57.30;;;;;;5012168;28;20068;-71
2022/08/31 06:39:37;;;;;;;0.40;0.40;;;17.40;57.40;;;;;;5030413;28;20037;-71
2022/08/31 06:42:03;;;;;;;0.68;0.40;;;17.50;57.40;;;;;;5030312;28;20025;-71
2022/08/31 06:44:29;;;;;;;0.30;0.30;;;17.50;57.40;;;;;;5012371;28;20021;-71
2022/08/31 06:46:56;;;;;;;0.30;0.30;;;17.50;57.30;;;;;;5036656;28;20033;-66
2022/08/31 06:49:22;;;;;;;0.30;0.30;;;17.60;57.40;;;;;;5030196;28;20119;-66
2022/08/31 06:51:49;;;;;;;0.20;0.20;;;17.60;57.30;;;;;;5029912;28;20037;-66
2022/08/31 06:54:18;;;;;;;0.25;0.25;;;17.70;57.20;;;;;;5038943;28;20033;-66
2022/08/31 06:56:44;;;;;;;0.50;0.30;;;17.70;57.10;;;;;;5011858;28;20029;-66
2022/08/31 06:59:11;;;;;;;0.35;0.25;;;17.80;57.10;;;;;;5028979;28;20037;-72
2022/08/31 07:01:38;;;;;;;0.57;0.30;;;17.90;57.00;;;;;;5029476;28;20083;-72
2022/08/31 07:04:08;;;;;;;0.20;0.20;;;18.00;56.90;;;;;;5029984;28;20064;-72
2022/08/31 07:06:39;;;;;;;0.60;0.40;;;18.10;56.90;;;;;;5022655;28;20488;-72
2022/08/31 07:09:07;;;;;;;0.35;0.35;;;18.10;57.00;;;;;;5027915;28;20473;-72
2022/08/31 07:11:39;;;;;;;0.25;0.20;;;18.10;57.10;;;;;;5028736;28;20021;-72
2022/08/31 07:14:08;;;;;;;;;;;18.20;57.10;;;;;;5027796;28;20033;-72
2022/08/31 07:16:35;;;;;;;0.30;0.30;;;18.10;57.10;;;;;;5028758;28;19962;-71
2022/08/31 07:19:05;;;;;;;4.03;0.30;;;18.10;57.30;;;;;;5029581;28;20036;-72
2022/08/31 07:21:34;;;;;;;0.40;0.35;;;18.10;57.30;;;;;;5024035;28;20401;-71
2022/08/31 07:24:04;;;;;;;0.43;0.40;;;18.20;57.40;;;;;;5009464;28;20022;-72
2022/08/31 07:26:44;;;;;;;0.40;0.40;;;18.20;57.50;;;;;;4992125;28;20414;-72
2022/08/31 07:29:13;;;;;;;0.50;0.35;;;18.40;57.70;;;;;;5009923;28;20025;-72
2022/08/31 07:31:46;;;;;;;1.85;0.40;;;18.50;57.50;;;;;;5009601;28;20121;-72
2022/08/31 07:34:14;;;;;;;0.98;0.40;;;18.60;57.40;;;;;;5014253;28;20053;-72
2022/08/31 07:42:45;;;;;;;0.40;0.40;;;19.20;56.80;;;;;;5008789;28;20045;-72
2022/08/31 07:45:20;;;;;;;0.68;0.38;;;19.40;56.40;;;;;;4995151;28;20053;-72
2022/08/31 07:47:47;;;;;;;0.43;0.43;;;19.50;56.50;;;;;;5028317;28;20072;-72
2022/08/31 07:50:16;;;;;;;0.47;0.43;;;19.60;56.30;;;;;;5015679;28;20574;-72
2022/08/31 07:52:53;;;;;;;0.40;0.40;;;19.70;56.40;;;;;;5008896;28;20129;-72
2022/08/31 07:55:20;;;;;;;1.98;0.73;;;19.70;56.20;;;;;;5017321;28;20030;-72
2022/08/31 07:57:47;;;;;;;0.30;0.30;;;19.80;56.10;;;;;;5008722;28;20037;-72
2022/08/31 08:00:19;;;;;;;0.30;0.30;;;20.00;56.00;;;;;;5005370;28;20037;-71
2022/08/31 08:02:45;;;;;;;0.50;0.50;;;20.10;56.10;;;;;;4991992;28;20382;-72
2022/08/31 08:05:21;;;;;;;0.45;0.30;;;20.10;55.90;;;;;;5009195;28;20097;-72
2022/08/31 08:07:50;;;;;;;0.88;0.40;;;20.30;55.90;;;;;;5009059;28;20052;-72
2022/08/31 08:10:18;;;;;;;1.60;0.40;;;20.30;55.80;;;;;;5021944;28;20030;-71
2022/08/31 08:12:47;;;;;;;0.30;0.30;;;20.40;55.50;;;;;;5009615;28;20063;-71
2022/08/31 08:15:13;;;;;;;5.53;0.63;;;20.40;55.30;;;;;;4991579;28;20193;-72
2022/08/31 08:17:39;;;;;;;0.40;0.40;;;20.50;55.50;;;;;;5008713;28;20054;-67
2022/08/31 08:20:06;;;;;;;0.30;0.30;;;20.40;55.40;;;;;;5006947;28;20069;-67
2022/08/31 08:22:32;;;;;;;0.45;0.30;;;20.40;55.50;;;;;;5008760;28;20106;-72
2022/08/31 08:24:59;;;;;;;0.40;0.40;;;20.40;55.50;;;;;;5008853;28;20026;-71
2022/08/31 08:27:26;;;;;;;1.13;0.50;;;20.40;55.60;;;;;;5009120;28;20030;-67
2022/08/31 08:29:52;;;;;;;0.30;0.30;;;20.50;55.70;;;;;;5009541;28;20034;-71
2022/08/31 08:32:18;;;;;;;1.10;0.40;;;20.50;55.50;;;;;;5008596;28;20025;-72
2022/08/31 08:34:44;;;;;;;0.73;0.60;;;20.70;55.30;;;;;;4995055;28;20030;-66
2022/08/31 08:37:11;;;;;;;0.90;0.57;;;20.90;55.20;;;;;;4996784;28;20033;-66
2022/08/31 08:39:38;;;;;;;0.98;0.50;;;21.00;55.00;;;;;;5008981;28;20038;-66
2022/08/31 08:42:07;;;;;;;0.68;0.68;;;21.20;54.90;;;;;;5004001;28;20513;-66
2022/08/31 08:44:35;;;;;;;0.82;0.70;;;21.30;54.60;;;;;;5011032;28;20396;-67
2022/08/31 08:47:24;;;;;;;0.47;0.47;;;21.50;54.60;;;;;;5017863;28;20021;-67
2022/08/31 08:49:52;;;;;;;0.40;0.40;;;21.60;54.20;;;;;;5004147;28;20100;-67
2022/08/31 08:52:40;;;;;;;0.75;0.40;;;21.60;54.00;;;;;;5002835;28;20156;-66
2022/08/31 08:55:14;;;;;;;0.50;0.50;;;21.70;54.00;;;;;;5010861;28;20030;-66
2022/08/31 08:57:43;;;;;;;0.30;0.30;;;21.70;54.10;;;;;;5012569;28;20072;-66
2022/08/31 09:00:14;;;;;;;1.55;0.50;;;21.70;54.20;;;;;;5007350;28;20113;-66
2022/08/31 09:02:59;;;;;;;0.30;0.30;;;21.80;54.10;;;;;;5007793;28;20031;-71
2022/08/31 09:05:40;;;;;;;0.20;0.20;;;21.90;54.00;;;;;;4988971;28;20022;-71
2022/08/31 09:08:34;;;;;;;0.43;0.30;;;22.00;53.90;;;;;;5008165;28;20042;-71
2022/08/31 09:11:16;;;;;;;0.82;0.40;;;22.10;53.80;;;;;;4989172;28;20026;-66
2022/08/31 09:14:17;;;;;;;0.38;0.30;;;22.10;53.70;;;;;;5013983;28;20089;-66
2022/08/31 09:16:50;;;;;;;0.43;0.43;;;22.30;53.60;;;;;;5008871;28;20152;-71
2022/08/31 09:19:18;;;;;;;0.30;0.30;;;22.50;53.30;;;;;;5018400;28;20038;-71
2022/08/31 09:21:50;;;;;;;1.73;0.40;;;22.60;53.10;;;;;;5022157;28;20183;-72
2022/08/31 09:24:28;;;;;;;2.63;0.55;;;22.80;52.80;;;;;;5032600;28;20025;-72
2022/08/31 09:27:25;;;;;;;0.40;0.40;;;22.90;52.50;;;;;;5030537;28;20061;-72
2022/08/31 09:29:57;;;;;;;0.50;0.40;;;23.10;52.30;;;;;;5034107;28;20040;-67
2022/08/31 09:32:30;;;;;;;0.60;0.60;;;23.10;52.10;;;;;;5034249;28;20025;-71
2022/08/31 09:35:08;;;;;;;0.40;0.40;;;23.20;51.90;;;;;;5029788;28;20117;-72
2022/08/31 09:37:40;;;;;;;0.65;0.40;;;23.30;51.70;;;;;;5012233;28;20029;-72
2022/08/31 09:40:16;;;;;;;0.30;0.30;;;23.40;51.40;;;;;;5031332;28;20025;-72
2022/08/31 09:42:44;;;;;;;0.20;0.20;;;23.50;51.30;;;;;;5031533;28;20025;-72
2022/08/31 09:45:18;;;;;;;0.85;0.40;;;23.60;51.00;;;;;;5031398;28;20029;-72
2022/08/31 09:47:50;;;;;;;0.60;0.60;;;23.70;50.60;;;;;;5038016;28;20430;-67
2022/08/31 09:50:43;;;;;;;0.40;0.40;;;23.70;50.40;;;;;;5038803;28;20586;-66
2022/08/31 09:56:22;;;;;;;0.40;0.35;;;24.00;49.90;;;;;;5020761;28;20040;-66
2022/08/31 09:58:59;;;;;;;0.50;0.50;;;24.20;49.70;;;;;;5013882;28;20159;-67
2022/08/31 10:01:29;;;;;;;0.45;0.40;;;24.40;50.20;;;;;;5043875;28;20017;-67
2022/08/31 10:04:24;;;;;;;0.40;0.40;;;24.40;49.10;;;;;;5028782;28;20056;-72
2022/08/31 10:07:12;;;;;;;0.50;0.50;;;24.60;49.00;;;;;;5030238;28;20468;-72
2022/08/31 10:09:46;;;;;;;0.30;0.30;;;24.80;48.50;;;;;;5034764;28;20036;-71
2022/08/31 10:12:21;;;;;;;4.03;0.47;;;25.00;48.30;;;;;;5031116;28;20113;-66
2022/08/31 10:14:56;;;;;;;0.40;0.40;;;25.10;48.00;;;;;;5030863;28;20025;-66
2022/08/31 10:17:34;;;;;;;0.50;0.50;;;25.20;48.00;;;;;;5012816;28;20388;-67
2022/08/31 10:20:06;;;;;;;0.30;0.30;;;25.40;47.70;;;;;;5013094;28;20112;-67
2022/08/31 10:22:45;;;;;;;0.50;0.50;;;25.50;47.30;;;;;;5038112;28;20041;-72
2022/08/31 10:25:29;;;;;;;0.50;0.50;;;25.60;46.70;;;;;;5033590;28;20095;-72
2022/08/31 10:28:13;;;;;;;1.08;0.50;;;25.70;46.40;;;;;;5034798;28;20033;-72
2022/08/31 10:30:46;;;;;;;0.60;0.55;;;25.80;46.50;;;;;;5033177;28;20491;-72
2022/08/31 10:35:01;;;;;;;0.30;0.30;;;25.90;46.30;;;;;;5037661;28;20031;-72
2022/08/31 10:36:15;;;;;;;0.50;0.50;;;26.10;46.20;;;;;;5042113;28;20405;-72
2022/08/31 10:38:46;;;;;;;0.40;0.40;;;26.20;45.80;;;;;;5029719;28;20029;-72
2022/08/31 10:41:24;;;;;;;0.40;0.40;;;26.40;45.60;;;;;;5030101;28;20026;-72
2022/08/31 10:44:22;;;;;;;0.35;0.35;;;26.50;45.40;;;;;;5012425;28;20013;-72
2022/08/31 10:46:53;;;;;;;0.50;0.50;;;26.70;45.00;;;;;;5030166;28;20568;-72
2022/08/31 10:49:22;;;;;;;0.50;0.50;;;26.70;44.80;;;;;;5029723;28;20116;-72
2022/08/31 10:51:47;;;;;;;0.40;0.40;;;26.70;44.60;;;;;;5013160;28;20025;-72
2022/08/31 10:54:20;;;;;;;0.57;0.50;;;26.60;44.90;;;;;;5030225;28;20025;-72
2022/08/31 10:57:18;;;;;;;0.40;0.40;;;26.70;45.00;;;;;;5029397;28;20113;-72
2022/08/31 11:00:40;;;;;;;0.75;0.52;;;26.90;44.90;;;;;;5021111;28;20035;-72
2022/08/31 11:03:12;;;;;;;0.57;0.57;;;27.20;44.50;;;;;;5029847;28;20212;-72
2022/08/31 11:05:56;;;;;;;1.45;0.85;;;27.50;43.80;;;;;;5028267;28;20033;-67
2022/08/31 11:08:48;;;;;;;0.50;0.50;;;27.60;43.50;;;;;;5029376;28;20033;-72
2022/08/31 11:11:39;;;;;;;0.73;0.73;;;27.60;43.40;;;;;;5032557;28;20032;-72
2022/08/31 11:14:23;;;;;;;0.50;0.50;;;27.80;43.40;;;;;;5031107;28;20061;-72
2022/08/31 11:17:06;;;;;;;0.50;0.50;;;28.00;43.20;;;;;;5036231;28;20025;-72
2022/08/31 11:19:41;;;;;;;0.40;0.40;;;28.20;43.00;;;;;;5033222;28;20037;-72
2022/08/31 11:22:39;;;;;;;0.52;0.52;;;28.60;42.60;;;;;;5011318;28;20053;-67
2022/08/31 11:25:46;;;;;;;0.60;0.60;;;28.70;42.00;;;;;;5011851;28;20033;-67
2022/08/31 11:28:27;;;;;;;0.77;0.60;;;28.70;42.00;;;;;;5029998;28;20033;-67
2022/08/31 11:30:55;;;;;;;0.70;0.40;;;28.80;41.70;;;;;;5030071;28;20027;-73
2022/08/31 11:33:26;;;;;;;0.50;0.50;;;28.80;41.60;;;;;;4995597;28;20033;-72
2022/08/31 11:36:07;;;;;;;;;;;28.80;41.50;;;;;;5029683;28;20040;-72
2022/08/31 11:39:14;;;;;;;0.55;0.55;;;28.60;41.10;;;;;;5035288;28;19962;-72
2022/08/31 11:41:46;;;;;;;0.68;0.68;;;28.30;41.80;;;;;;5019632;28;20405;-72
2022/08/31 11:44:38;;;;;;;0.38;0.38;;;28.00;42.20;;;;;;5029464;28;20056;-72
2022/08/31 11:47:28;;;;;;;0.60;0.60;;;27.80;42.60;;;;;;5029151;28;20099;-72
2022/08/31 11:50:04;;;;;;;0.63;0.63;;;27.60;42.90;;;;;;5031477;28;20041;-72
2022/08/31 11:52:35;;;;;;;0.57;0.45;;;27.50;43.00;;;;;;5028828;28;20021;-72
2022/08/31 11:55:25;;;;;;;0.30;0.30;;;27.60;43.20;;;;;;5029077;28;20033;-72
2022/08/31 11:58:06;;;;;;;0.47;0.47;;;27.70;43.00;;;;;;5038956;28;20387;-72
2022/08/31 12:00:57;;;;;;;0.40;0.40;;;27.90;43.40;;;;;;5030646;28;20033;-72
2022/08/31 12:04:02;;;;;;;2.20;0.55;;;27.90;42.20;;;;;;5032548;28;20036;-72
2022/08/31 12:06:28;;;;;;;0.40;0.40;;;27.70;42.20;;;;;;5038399;28;20115;-72
2022/08/31 12:09:21;;;;;;;0.52;0.52;;;27.70;42.50;;;;;;5010991;28;20431;-72
2022/08/31 12:12:16;;;;;;;0.40;0.40;;;27.70;42.50;;;;;;5027599;28;20396;-72
2022/08/31 12:14:51;;;;;;;0.50;0.50;;;27.60;42.60;;;;;;4974798;28;20128;-72
2022/08/31 12:17:25;;;;;;;0.38;0.38;;;27.40;42.80;;;;;;5044413;28;20052;-72
2022/08/31 12:20:06;;;;;;;0.60;0.60;;;27.40;42.60;;;;;;5018585;28;20511;-73
2022/08/31 12:26:03;;;;;;;0.70;0.70;;;27.50;42.70;;;;;;5053849;28;20407;-72
2022/08/31 12:28:53;;;;;;;0.40;0.40;;;27.70;42.50;;;;;;5051804;28;20028;-71
2022/08/31 12:31:19;;;;;;;0.40;0.40;;;27.90;42.30;;;;;;5034356;28;20436;-71
2022/08/31 12:34:18;;;;;;;1.67;0.40;;;28.50;41.90;;;;;;5052639;28;20087;-71
2022/08/31 12:36:44;;;;;;;0.68;0.68;;;29.20;41.20;;;;;;5006893;28;20518;-72
2022/08/31 12:39:18;;;;;;;0.47;0.47;;;29.70;40.20;;;;;;5039647;28;20029;-72
2022/08/31 12:41:52;;;;;;;0.50;0.50;;;30.10;39.60;;;;;;5049829;28;20025;-72
2022/08/31 12:44:21;;;;;;;0.75;0.75;;;30.50;39.00;;;;;;5052685;28;20025;-72
2022/08/31 12:47:16;;;;;;;0.47;0.47;;;30.70;38.70;;;;;;5062054;28;20036;-72
2022/08/31 12:50:28;;;;;;;0.57;0.50;;;30.90;38.40;;;;;;5052765;28;20024;-66
2022/08/31 12:53:29;;;;;;;0.60;0.60;;;30.90;38.20;;;;;;5033883;28;20025;-67
2022/08/31 12:56:01;;;;;;;0.57;0.57;;;30.80;38.50;;;;;;5052070;28;20075;-66
2022/08/31 12:58:49;;;;;;;0.50;0.50;;;30.70;38.30;;;;;;5045738;28;20033;-67
2022/08/31 13:01:20;;;;;;;0.70;0.70;;;30.70;37.80;;;;;;5067424;28;20052;-67
2022/08/31 13:03:50;;;;;;;0.60;0.60;;;30.70;37.90;;;;;;5037086;28;20033;-67
2022/08/31 13:06:25;;;;;;;0.50;0.50;;;30.80;37.90;;;;;;5059901;28;20032;-67
2022/08/31 13:08:53;;;;;;;0.60;0.50;;;30.90;37.80;;;;;;5052059;28;20029;-67
2022/08/31 13:11:30;;;;;;;0.60;0.60;;;31.10;37.50;;;;;;5051710;28;20499;-67
2022/08/31 13:14:11;;;;;;;0.60;0.60;;;31.10;37.40;;;;;;5051669;28;20095;-66
2022/08/31 13:16:43;;;;;;;1.10;0.73;;;30.90;37.80;;;;;;5064510;28;20056;-72
2022/08/31 13:19:22;;;;;;;0.77;0.50;;;31.10;37.80;;;;;;5049106;28;20036;-72
2022/08/31 13:21:50;;;;;;;0.80;0.80;;;31.20;37.20;;;;;;5051349;28;20160;-72
2022/08/31 13:24:22;;;;;;;0.70;0.70;;;31.30;37.10;;;;;;5056769;28;20079;-72
2022/08/31 13:27:20;;;;;;;0.60;0.60;;;31.50;37.10;;;;;;5051150;28;20024;-72